createdAt,value
2018-08-27T00:01:11.235Z,3.87
2018-08-27T00:03:39.660Z,1.43
2018-08-27T00:06:08.775Z,1.60
2018-08-27T00:08:37.204Z,1.87
2018-08-27T00:11:05.824Z,4.17
2018-08-27T00:13:34.241Z,3.70
2018-08-27T00:16:02.705Z,3.03
2018-08-27T00:18:31.141Z,1.90
2018-08-27T00:20:59.898Z,3.03
2018-08-27T00:23:35.073Z,3.57
2018-08-27T00:26:03.503Z,2.77
2018-08-27T00:28:31.948Z,3.17
2018-08-27T00:31:00.378Z,2.63
2018-08-27T00:33:28.821Z,3.47
2018-08-27T00:35:57.285Z,2.80
2018-08-27T00:38:25.718Z,2.27
2018-08-27T00:40:54.162Z,2.73
2018-08-27T00:43:22.587Z,1.47
2018-08-27T00:45:51.045Z,2.53
2018-08-27T00:48:19.491Z,1.27
2018-08-27T00:50:47.941Z,5.23
2018-08-27T00:53:16.377Z,2.23
2018-08-27T00:55:44.825Z,3.33
2018-08-27T00:58:13.264Z,3.97
2018-08-27T01:00:41.724Z,2.90
2018-08-27T01:03:10.154Z,2.60
2018-08-27T01:05:38.577Z,2.50
2018-08-27T01:08:07.037Z,3.33
2018-08-27T01:10:36.145Z,1.97
2018-08-27T01:13:04.597Z,3.23
2018-08-27T01:15:33.046Z,2.67
2018-08-27T01:18:01.478Z,1.87
2018-08-27T01:20:29.925Z,2.80
2018-08-27T01:22:58.378Z,2.10
2018-08-27T01:25:26.851Z,1.87
2018-08-27T01:27:55.273Z,2.37
2018-08-27T01:30:23.733Z,2.40
2018-08-27T01:32:52.195Z,3.63
2018-08-27T01:35:20.645Z,2.37
2018-08-27T01:37:49.085Z,3.50
2018-08-27T01:40:17.553Z,1.53
2018-08-27T01:42:45.977Z,3.20
2018-08-27T01:45:14.399Z,1.70
2018-08-27T01:47:42.901Z,2.03
2018-08-27T01:50:11.320Z,2.03
2018-08-27T01:52:39.763Z,3.03
2018-08-27T01:55:08.181Z,2.53
2018-08-27T01:57:36.637Z,2.27
2018-08-27T02:00:05.761Z,2.87
2018-08-27T02:02:34.218Z,2.13
2018-08-27T02:05:02.670Z,3.17
2018-08-27T02:07:31.106Z,2.13
2018-08-27T02:09:59.540Z,2.20
2018-08-27T02:12:27.990Z,2.27
2018-08-27T02:14:56.450Z,2.93
2018-08-27T02:17:24.893Z,2.83
2018-08-27T02:19:53.325Z,2.07
2018-08-27T02:22:21.778Z,2.17
2018-08-27T02:24:50.228Z,2.83
2018-08-27T02:27:18.705Z,2.13
2018-08-27T02:29:47.248Z,3.33
2018-08-27T02:32:15.698Z,3.30
2018-08-27T02:34:44.135Z,2.20
2018-08-27T02:37:12.621Z,5.37
2018-08-27T02:39:41.045Z,3.73
2018-08-27T02:42:09.498Z,4.70
2018-08-27T02:44:37.924Z,3.30
2018-08-27T02:47:06.613Z,2.63
2018-08-27T02:49:35.035Z,3.27
2018-08-27T02:52:03.490Z,3.90
2018-08-27T02:54:31.920Z,4.43
2018-08-27T02:57:00.385Z,3.13
2018-08-27T02:59:28.914Z,2.93
2018-08-27T03:01:57.381Z,2.20
2018-08-27T03:04:25.805Z,4.47
2018-08-27T03:06:54.254Z,4.50
2018-08-27T03:09:22.683Z,5.33
2018-08-27T03:11:51.611Z,4.37
2018-08-27T03:14:20.052Z,2.80
2018-08-27T03:16:48.509Z,3.97
2018-08-27T03:19:16.948Z,3.23
2018-08-27T03:21:45.393Z,3.37
2018-08-27T03:24:13.844Z,2.73
2018-08-27T03:26:42.280Z,3.40
2018-08-27T03:29:10.737Z,6.47
2018-08-27T03:31:39.286Z,3.03
2018-08-27T03:34:07.741Z,4.13
2018-08-27T03:36:36.195Z,5.27
2018-08-27T03:39:08.003Z,4.07
2018-08-27T03:41:36.478Z,3.43
2018-08-27T03:44:04.949Z,4.83
2018-08-27T03:46:33.391Z,4.23
2018-08-27T03:49:02.431Z,3.43
2018-08-27T03:51:30.887Z,3.97
2018-08-27T03:53:59.410Z,4.00
2018-08-27T03:56:27.862Z,3.53
2018-08-27T03:58:56.316Z,2.73
2018-08-27T04:01:24.774Z,4.37
2018-08-27T04:03:53.202Z,2.90
2018-08-27T04:06:21.654Z,2.93
2018-08-27T04:08:50.110Z,3.10
2018-08-27T04:11:18.570Z,3.33
2018-08-27T04:13:47.099Z,3.87
2018-08-27T04:16:15.568Z,3.00
2018-08-27T04:18:44.016Z,5.77
2018-08-27T04:21:12.480Z,2.73
2018-08-27T04:23:40.936Z,3.57
2018-08-27T04:26:09.406Z,4.23
2018-08-27T04:28:37.908Z,3.30
2018-08-27T04:31:06.386Z,2.83
2018-08-27T04:33:34.835Z,4.90
2018-08-27T04:36:03.308Z,5.60
2018-08-27T04:38:31.805Z,3.37
2018-08-27T04:41:00.271Z,3.03
2018-08-27T04:43:29.366Z,2.27
2018-08-27T04:45:58.594Z,3.33
2018-08-27T04:48:27.049Z,2.00
2018-08-27T04:50:55.544Z,2.70
2018-08-27T04:53:23.965Z,1.70
2018-08-27T04:55:52.455Z,2.50
2018-08-27T04:58:22.470Z,2.90
2018-08-27T05:00:50.940Z,2.80
2018-08-27T05:03:19.379Z,1.97
2018-08-27T05:05:47.833Z,2.43
2018-08-27T05:08:16.251Z,3.00
2018-08-27T05:10:44.701Z,6.40
2018-08-27T05:13:13.175Z,4.47
2018-08-27T05:15:41.609Z,4.03
2018-08-27T05:18:10.066Z,2.83
2018-08-27T05:20:38.525Z,4.53
2018-08-27T05:23:07.030Z,4.13
2018-08-27T05:25:35.478Z,2.23
2018-08-27T05:28:03.940Z,1.93
2018-08-27T05:30:33.003Z,3.30
2018-08-27T05:33:01.462Z,3.23
2018-08-27T05:35:29.924Z,2.77
2018-08-27T05:37:58.420Z,3.40
2018-08-27T05:40:26.942Z,3.00
2018-08-27T05:42:55.389Z,2.43
2018-08-27T05:45:23.867Z,2.57
2018-08-27T05:47:52.383Z,1.40
2018-08-27T05:50:20.922Z,3.00
2018-08-27T05:52:49.388Z,3.77
2018-08-27T05:55:17.824Z,3.60
2018-08-27T05:57:46.554Z,3.27
2018-08-27T06:00:15.241Z,6.47
2018-08-27T06:02:43.710Z,2.63
2018-08-27T06:05:12.879Z,4.23
2018-08-27T06:07:41.338Z,2.07
2018-08-27T06:10:09.852Z,3.70
2018-08-27T06:12:38.362Z,2.53
2018-08-27T06:15:08.250Z,3.60
2018-08-27T06:17:37.397Z,3.20
2018-08-27T06:20:06.538Z,1.53
2018-08-27T06:22:35.059Z,2.60
2018-08-27T06:25:03.651Z,4.27
2018-08-27T06:27:32.054Z,2.37
2018-08-27T06:30:00.483Z,3.20
2018-08-27T06:32:28.999Z,1.87
2018-08-27T06:34:57.450Z,1.87
2018-08-27T06:37:25.881Z,1.83
2018-08-27T06:39:54.487Z,3.63
2018-08-27T06:42:22.961Z,3.23
2018-08-27T06:44:51.409Z,1.70
2018-08-27T06:47:19.889Z,1.43
2018-08-27T06:49:48.361Z,3.97
2018-08-27T06:52:16.824Z,1.50
2018-08-27T06:54:45.249Z,1.90
2018-08-27T06:57:13.725Z,2.30
2018-08-27T06:59:42.142Z,1.60
2018-08-27T07:02:10.606Z,1.87
2018-08-27T07:04:39.053Z,1.57
2018-08-27T07:07:07.839Z,1.87
2018-08-27T07:09:36.551Z,1.83
2018-08-27T07:12:05.061Z,1.40
2018-08-27T07:14:33.493Z,1.63
2018-08-27T07:17:01.945Z,3.30
2018-08-27T07:19:30.378Z,1.87
2018-08-27T07:21:58.841Z,3.60
2018-08-27T07:24:27.625Z,3.87
2018-08-27T07:26:56.093Z,1.63
2018-08-27T07:29:24.517Z,2.00
2018-08-27T07:31:52.985Z,3.13
2018-08-27T07:34:21.427Z,1.77
2018-08-27T07:36:49.895Z,1.40
2018-08-27T07:39:18.401Z,2.53
2018-08-27T07:41:46.862Z,1.37
2018-08-27T07:44:15.290Z,1.47
2018-08-27T07:46:43.738Z,1.23
2018-08-27T07:49:12.279Z,3.10
2018-08-27T07:51:40.874Z,1.97
2018-08-27T07:54:09.327Z,2.07
2018-08-27T07:56:37.787Z,2.13
2018-08-27T07:59:06.305Z,3.67
2018-08-27T08:01:35.151Z,1.90
2018-08-27T08:04:03.725Z,3.03
2018-08-27T08:06:32.172Z,1.70
2018-08-27T08:09:00.649Z,2.47
2018-08-27T08:11:29.091Z,2.27
2018-08-27T08:13:57.600Z,2.77
2018-08-27T08:16:26.065Z,2.10
2018-08-27T08:18:54.558Z,2.43
2018-08-27T08:21:23.015Z,1.80
2018-08-27T08:23:51.567Z,1.93
2018-08-27T08:26:20.030Z,2.50
2018-08-27T08:28:48.516Z,3.23
2018-08-27T08:31:16.942Z,1.50
2018-08-27T08:33:45.389Z,4.00
2018-08-27T08:36:14.449Z,2.73
2018-08-27T08:38:42.889Z,2.63
2018-08-27T08:41:11.932Z,1.93
2018-08-27T08:43:40.376Z,1.50
2018-08-27T08:46:08.842Z,1.50
2018-08-27T08:48:37.273Z,3.53
2018-08-27T08:51:05.789Z,2.93
2018-08-27T08:53:34.282Z,2.70
2018-08-27T08:56:02.743Z,3.20
2018-08-27T08:58:31.203Z,2.30
2018-08-27T09:00:59.671Z,3.00
2018-08-27T09:03:28.159Z,2.80
2018-08-27T09:05:56.636Z,2.47
2018-08-27T09:08:25.138Z,3.20
2018-08-27T09:10:53.584Z,2.67
2018-08-27T09:13:22.086Z,4.60
2018-08-27T09:15:50.506Z,3.43
2018-08-27T09:18:18.934Z,3.90
2018-08-27T09:20:47.435Z,3.90
2018-08-27T09:23:15.958Z,5.97
2018-08-27T09:25:44.435Z,3.53
2018-08-27T09:28:12.906Z,4.00
2018-08-27T09:30:41.392Z,3.40
2018-08-27T09:33:09.866Z,3.87
2018-08-27T09:35:38.373Z,4.00
2018-08-27T09:38:06.911Z,3.77
2018-08-27T09:40:35.394Z,5.73
2018-08-27T09:43:03.867Z,4.97
2018-08-27T09:45:32.314Z,4.13
2018-08-27T09:48:00.785Z,4.97
2018-08-27T09:50:29.234Z,3.87
2018-08-27T09:52:57.869Z,4.60
2018-08-27T09:55:26.225Z,8.30
2018-08-27T09:57:54.690Z,7.10
2018-08-27T10:00:28.442Z,6.60
2018-08-27T10:02:56.952Z,6.87
2018-08-27T10:05:25.699Z,7.10
2018-08-27T10:07:54.555Z,7.27
2018-08-27T10:10:23.006Z,6.87
2018-08-27T10:12:51.490Z,6.23
2018-08-27T10:15:19.937Z,7.40
2018-08-27T10:17:48.507Z,6.53
2018-08-27T10:20:16.951Z,5.57
2018-08-27T10:22:45.522Z,6.50
2018-08-27T10:25:14.438Z,7.43
2018-08-27T10:27:43.628Z,5.80
2018-08-27T10:30:12.938Z,5.27
2018-08-27T10:32:41.499Z,5.83
2018-08-27T10:35:09.973Z,5.20
2018-08-27T10:37:38.535Z,5.23
2018-08-27T10:40:07.957Z,8.37
2018-08-27T10:42:36.409Z,6.30
2018-08-27T10:45:04.955Z,7.50
2018-08-27T10:47:33.402Z,6.70
2018-08-27T10:50:01.904Z,7.70
2018-08-27T10:52:30.350Z,8.70
2018-08-27T10:54:58.891Z,8.43
2018-08-27T10:57:27.379Z,8.13
2018-08-27T10:59:55.879Z,7.37
2018-08-27T11:02:24.361Z,9.03
2018-08-27T11:04:52.983Z,9.60
2018-08-27T11:07:24.236Z,9.97
2018-08-27T11:09:54.255Z,11.17
2018-08-27T11:12:22.799Z,9.70
2018-08-27T11:14:51.898Z,8.23
2018-08-27T11:17:21.324Z,8.40
2018-08-27T11:19:49.994Z,7.13
2018-08-27T11:22:18.627Z,7.00
2018-08-27T11:24:47.105Z,9.47
2018-08-27T11:27:15.617Z,8.83
2018-08-27T11:29:44.100Z,6.17
2018-08-27T11:32:12.576Z,9.00
2018-08-27T11:34:41.058Z,8.83
2018-08-27T11:37:09.527Z,7.80
2018-08-27T11:39:37.974Z,7.17
2018-08-27T11:42:06.565Z,9.17
2018-08-27T11:44:34.989Z,6.13
2018-08-27T11:47:03.454Z,7.13
2018-08-27T11:49:31.919Z,6.97
2018-08-27T11:52:00.408Z,8.67
2018-08-27T11:54:28.887Z,6.90
2018-08-27T11:56:57.334Z,7.23
2018-08-27T11:59:25.818Z,7.63
2018-08-27T12:01:54.296Z,8.20
2018-08-27T12:04:22.830Z,6.13
2018-08-27T12:06:51.309Z,5.00
2018-08-27T12:09:19.764Z,6.67
2018-08-27T12:11:48.275Z,8.93
2018-08-27T12:14:16.786Z,7.27
2018-08-27T12:16:45.320Z,5.30
2018-08-27T12:19:13.754Z,6.97
2018-08-27T12:21:42.201Z,8.23
2018-08-27T12:24:10.682Z,6.40
2018-08-27T12:26:39.170Z,7.07
2018-08-27T12:29:07.637Z,6.80
2018-08-27T12:31:36.108Z,7.93
2018-08-27T12:34:04.573Z,7.30
2018-08-27T12:36:33.053Z,10.23
2018-08-27T12:39:01.510Z,6.50
2018-08-27T12:41:29.970Z,8.63
2018-08-27T12:43:58.414Z,6.17
2018-08-27T12:46:26.906Z,6.77
2018-08-27T12:48:55.370Z,7.50
2018-08-27T12:51:23.900Z,9.37
2018-08-27T12:53:52.320Z,6.90
2018-08-27T12:56:20.802Z,7.93
2018-08-27T12:58:49.329Z,8.83
2018-08-27T13:01:18.499Z,7.47
2018-08-27T13:03:47.133Z,11.20
2018-08-27T13:06:15.801Z,9.40
2018-08-27T13:08:45.166Z,8.00
2018-08-27T13:11:13.636Z,8.07
2018-08-27T13:13:42.154Z,6.60
2018-08-27T13:16:10.821Z,8.93
2018-08-27T13:18:39.541Z,8.40
2018-08-27T13:21:13.217Z,10.97
2018-08-27T13:23:42.658Z,9.83
2018-08-27T13:26:11.505Z,10.97
2018-08-27T13:28:40.153Z,9.47
2018-08-27T13:31:09.337Z,7.93
2018-08-27T13:33:38.571Z,7.57
2018-08-27T13:36:07.191Z,7.40
2018-08-27T13:38:37.010Z,6.70
2018-08-27T13:41:05.565Z,11.53
2018-08-27T13:43:34.563Z,8.80
2018-08-27T13:46:03.061Z,6.80
2018-08-27T13:48:31.578Z,7.27
2018-08-27T13:51:00.171Z,8.80
2018-08-27T13:53:28.627Z,5.97
2018-08-27T13:55:57.894Z,6.70
2018-08-27T13:58:26.544Z,9.17
2018-08-27T14:00:55.174Z,6.73
2018-08-27T14:03:23.714Z,6.33
2018-08-27T14:05:52.897Z,6.90
2018-08-27T14:08:21.433Z,9.13
2018-08-27T14:10:50.020Z,8.13
2018-08-27T14:13:18.387Z,7.47
2018-08-27T14:15:46.871Z,8.47
2018-08-27T14:18:15.376Z,8.20
2018-08-27T14:20:43.998Z,8.23
2018-08-27T14:23:12.410Z,8.77
2018-08-27T14:25:40.952Z,6.50
2018-08-27T14:28:09.362Z,9.40
2018-08-27T14:30:37.827Z,9.23
2018-08-27T14:33:06.369Z,13.37
2018-08-27T14:35:34.823Z,7.60
2018-08-27T14:38:03.329Z,10.23
2018-08-27T14:40:31.837Z,8.20
2018-08-27T14:43:00.339Z,7.13
2018-08-27T14:45:28.882Z,8.80
2018-08-27T14:47:57.402Z,9.17
2018-08-27T14:50:26.601Z,8.20
2018-08-27T14:52:55.058Z,7.73
2018-08-27T14:55:23.557Z,7.10
2018-08-27T14:57:52.022Z,10.67
2018-08-27T15:00:20.473Z,7.37
2018-08-27T15:02:48.943Z,8.77
2018-08-27T15:05:17.409Z,8.37
2018-08-27T15:07:45.887Z,8.13
2018-08-27T15:10:14.507Z,8.17
2018-08-27T15:12:43.022Z,13.00
2018-08-27T15:15:11.506Z,8.57
2018-08-27T15:17:39.984Z,7.00
2018-08-27T15:20:08.708Z,11.43
2018-08-27T15:22:39.402Z,8.53
2018-08-27T15:25:07.908Z,7.47
2018-08-27T15:27:36.477Z,9.57
2018-08-27T15:30:05.579Z,8.83
2018-08-27T15:32:34.090Z,8.03
2018-08-27T15:35:02.563Z,7.13
2018-08-27T15:37:31.027Z,9.17
2018-08-27T15:40:06.766Z,8.57
2018-08-27T15:42:35.210Z,8.73
2018-08-27T15:45:08.158Z,9.10
2018-08-27T15:47:38.444Z,8.97
2018-08-27T15:50:07.908Z,10.17
2018-08-27T15:52:36.422Z,8.33
2018-08-27T15:55:04.956Z,12.00
2018-08-27T15:57:33.451Z,9.33
2018-08-27T16:00:02.419Z,10.83
2018-08-27T16:02:30.969Z,8.87
2018-08-27T16:04:59.477Z,8.60
2018-08-27T16:07:28.059Z,6.73
2018-08-27T16:09:56.520Z,13.50
2018-08-27T16:12:24.987Z,9.50
2018-08-27T16:14:53.445Z,7.80
2018-08-27T16:17:21.987Z,10.37
2018-08-27T16:19:50.433Z,9.53
2018-08-27T16:22:18.980Z,6.63
2018-08-27T16:24:47.474Z,9.43
2018-08-27T16:27:15.954Z,9.17
2018-08-27T16:29:44.417Z,11.30
2018-08-27T16:32:12.854Z,9.10
2018-08-27T16:34:41.311Z,12.87
2018-08-27T16:37:09.978Z,8.87
2018-08-27T16:39:38.529Z,7.87
2018-08-27T16:42:06.973Z,10.60
2018-08-27T16:44:35.434Z,7.97
2018-08-27T16:47:03.886Z,8.30
2018-08-27T16:49:32.412Z,9.37
2018-08-27T16:52:00.850Z,6.17
2018-08-27T16:54:29.318Z,12.13
2018-08-27T16:56:57.769Z,11.17
2018-08-27T16:59:26.253Z,8.50
2018-08-27T17:01:54.699Z,7.57
2018-08-27T17:04:23.216Z,7.17
2018-08-27T17:06:51.704Z,9.83
2018-08-27T17:09:20.268Z,7.60
2018-08-27T17:11:49.761Z,9.63
2018-08-27T17:14:18.250Z,7.63
2018-08-27T17:16:46.790Z,6.80
2018-08-27T17:19:15.273Z,9.90
2018-08-27T17:21:43.770Z,8.17
2018-08-27T17:24:12.233Z,9.63
2018-08-27T17:26:40.689Z,7.47
2018-08-27T17:29:09.195Z,9.50
2018-08-27T17:31:37.650Z,9.27
2018-08-27T17:34:06.254Z,8.87
2018-08-27T17:36:34.716Z,10.50
2018-08-27T17:39:03.298Z,7.43
2018-08-27T17:41:31.777Z,9.37
2018-08-27T17:44:00.232Z,7.47
2018-08-27T17:46:28.697Z,9.77
2018-08-27T17:48:57.148Z,8.97
2018-08-27T17:51:25.639Z,10.80
2018-08-27T17:53:54.123Z,9.97
2018-08-27T17:56:22.601Z,10.70
2018-08-27T17:58:51.110Z,10.47
2018-08-27T18:01:19.558Z,12.00
2018-08-27T18:03:48.074Z,8.27
2018-08-27T18:06:16.994Z,8.93
2018-08-27T18:08:45.495Z,11.80
2018-08-27T18:11:14.490Z,16.10
2018-08-27T18:13:43.220Z,9.97
2018-08-27T18:16:11.674Z,8.27
2018-08-27T18:18:40.186Z,11.30
2018-08-27T18:21:08.682Z,12.47
2018-08-27T18:23:37.414Z,10.53
2018-08-27T18:26:05.948Z,9.23
2018-08-27T18:28:34.577Z,9.17
2018-08-27T18:31:03.134Z,10.37
2018-08-27T18:33:33.537Z,10.47
2018-08-27T18:36:02.051Z,9.13
2018-08-27T18:38:30.611Z,10.00
2018-08-27T18:40:59.072Z,11.87
2018-08-27T18:43:27.757Z,9.17
2018-08-27T18:45:56.222Z,13.90
2018-08-27T18:48:24.671Z,12.03
2018-08-27T18:50:53.314Z,13.97
2018-08-27T18:53:21.776Z,11.97
2018-08-27T18:55:50.283Z,8.80
2018-08-27T18:58:18.735Z,13.53
2018-08-27T19:00:47.203Z,10.67
2018-08-27T19:03:15.671Z,11.63
2018-08-27T19:05:44.186Z,10.10
2018-08-27T19:08:12.684Z,10.47
2018-08-27T19:10:41.140Z,11.43
2018-08-27T19:13:09.686Z,11.37
2018-08-27T19:15:38.146Z,11.53
2018-08-27T19:18:06.654Z,8.70
2018-08-27T19:20:35.138Z,8.80
2018-08-27T19:23:03.634Z,13.67
2018-08-27T19:25:32.117Z,15.77
2018-08-27T19:28:01.681Z,11.53
2018-08-27T19:30:30.191Z,7.80
2018-08-27T19:32:58.740Z,12.67
2018-08-27T19:35:27.293Z,11.43
2018-08-27T19:37:55.688Z,10.70
2018-08-27T19:40:24.138Z,13.57
2018-08-27T19:42:52.835Z,10.40
2018-08-27T19:45:21.304Z,14.87
2018-08-27T19:47:50.324Z,12.73
2018-08-27T19:50:18.882Z,13.50
2018-08-27T19:52:47.355Z,11.27
2018-08-27T19:55:15.855Z,10.23
2018-08-27T19:57:44.338Z,9.53
2018-08-27T20:00:12.887Z,12.10
2018-08-27T20:02:41.522Z,11.60
2018-08-27T20:05:09.859Z,9.70
2018-08-27T20:07:38.314Z,16.20
2018-08-27T20:10:06.822Z,11.00
2018-08-27T20:12:35.294Z,11.63
2018-08-27T20:15:03.890Z,12.60
2018-08-27T20:17:32.344Z,14.10
2018-08-27T20:20:00.782Z,11.10
2018-08-27T20:22:29.356Z,7.80
2018-08-27T20:24:57.861Z,10.43
2018-08-27T20:27:26.381Z,10.70
2018-08-27T20:29:54.849Z,10.00
2018-08-27T20:32:23.318Z,10.80
2018-08-27T20:34:51.783Z,9.20
2018-08-27T20:37:20.259Z,10.63
2018-08-27T20:39:48.787Z,12.30
2018-08-27T20:42:17.220Z,11.23
2018-08-27T20:44:45.702Z,9.20
2018-08-27T20:47:14.186Z,12.67
2018-08-27T20:49:42.659Z,8.63
2018-08-27T20:52:11.480Z,11.03
2018-08-27T20:54:39.997Z,9.07
2018-08-27T20:57:08.527Z,9.93
2018-08-27T20:59:36.955Z,11.40
2018-08-27T21:02:05.566Z,10.87
2018-08-27T21:04:34.079Z,10.17
2018-08-27T21:07:02.530Z,10.00
2018-08-27T21:09:31.070Z,9.50
2018-08-27T21:11:59.539Z,12.00
2018-08-27T21:15:07.221Z,12.47
2018-08-27T21:17:36.193Z,8.87
2018-08-27T21:20:05.258Z,11.93
2018-08-27T21:22:34.286Z,11.20
2018-08-27T21:25:03.705Z,8.03
2018-08-27T21:27:32.186Z,11.20
2018-08-27T21:30:00.734Z,8.37
2018-08-27T21:32:29.189Z,8.97
2018-08-27T21:34:57.657Z,8.83
2018-08-27T21:37:26.171Z,9.10
2018-08-27T21:39:54.983Z,9.90
2018-08-27T21:42:23.859Z,9.93
2018-08-27T21:44:52.314Z,11.60
2018-08-27T21:47:21.024Z,8.93
2018-08-27T21:49:49.618Z,11.07
2018-08-27T21:52:18.122Z,6.93
2018-08-27T21:54:46.558Z,8.70
2018-08-27T21:57:15.065Z,8.57
2018-08-27T21:59:43.505Z,11.43
2018-08-27T22:02:17.339Z,10.60
2018-08-27T22:04:45.814Z,7.73
2018-08-27T22:07:14.400Z,13.07
2018-08-27T22:09:42.894Z,13.27
2018-08-27T22:12:11.385Z,13.53
2018-08-27T22:14:39.837Z,9.87
2018-08-27T22:17:09.865Z,13.80
2018-08-27T22:19:39.251Z,11.23
2018-08-27T22:22:07.744Z,10.20
2018-08-27T22:24:36.243Z,12.07
2018-08-27T22:27:04.769Z,8.17
2018-08-27T22:29:33.265Z,11.30
2018-08-27T22:32:01.733Z,9.43
2018-08-27T22:34:30.192Z,11.77
2018-08-27T22:36:58.667Z,11.30
2018-08-27T22:39:27.133Z,9.70
2018-08-27T22:41:55.719Z,8.10
2018-08-27T22:44:24.294Z,8.53
2018-08-27T22:46:53.398Z,9.53
2018-08-27T22:49:22.219Z,10.37
2018-08-27T22:51:50.855Z,9.10
2018-08-27T22:54:19.923Z,10.33
2018-08-27T22:56:48.406Z,9.77
2018-08-27T22:59:17.716Z,8.53
2018-08-27T23:01:46.941Z,18.23
2018-08-27T23:04:20.813Z,10.67
2018-08-27T23:06:49.297Z,12.27
2018-08-27T23:09:17.783Z,11.50
2018-08-27T23:11:46.252Z,8.67
2018-08-27T23:14:14.716Z,9.23
2018-08-27T23:16:43.222Z,9.90
2018-08-27T23:19:12.311Z,11.33
2018-08-27T23:21:40.786Z,15.27
2018-08-27T23:24:09.315Z,10.03
2018-08-27T23:26:37.851Z,9.50
2018-08-27T23:29:06.780Z,9.37
2018-08-27T23:31:35.312Z,9.17
2018-08-27T23:34:03.766Z,10.00
2018-08-27T23:36:32.246Z,12.63
2018-08-27T23:39:00.745Z,9.37
2018-08-27T23:41:29.239Z,9.53
2018-08-27T23:43:57.718Z,9.63
2018-08-27T23:46:26.171Z,8.17
2018-08-27T23:48:54.642Z,9.37
2018-08-27T23:51:23.126Z,9.37
2018-08-27T23:53:51.598Z,7.73
2018-08-27T23:56:20.126Z,7.30
2018-08-27T23:58:48.571Z,8.17
